createdAt,value
2018-05-21T00:01:44.478Z,12.50
2018-05-21T00:04:15.178Z,10.00
2018-05-21T00:06:48.309Z,11.00
2018-05-21T00:09:19.419Z,12.75
2018-05-21T00:11:51.186Z,11.00
2018-05-21T00:14:38.959Z,10.25
2018-05-21T00:17:09.895Z,12.00
2018-05-21T00:19:42.260Z,11.50
2018-05-21T00:22:19.810Z,9.75
2018-05-21T00:24:50.886Z,11.50
2018-05-21T00:27:38.358Z,11.00
2018-05-21T00:30:19.822Z,13.25
2018-05-21T00:32:53.191Z,13.00
2018-05-21T00:35:25.105Z,13.50
2018-05-21T00:37:55.450Z,10.75
2018-05-21T00:40:26.659Z,11.00
2018-05-21T00:42:58.441Z,14.25
2018-05-21T00:45:29.782Z,13.75
2018-05-21T00:48:19.005Z,11.75
2018-05-21T00:50:49.890Z,15.00
2018-05-21T00:53:22.168Z,11.75
2018-05-21T00:55:58.004Z,12.00
2018-05-21T00:58:31.934Z,14.25
2018-05-21T01:01:11.765Z,14.00
2018-05-21T01:03:42.290Z,16.25
2018-05-21T01:06:17.125Z,13.50
2018-05-21T01:08:51.266Z,15.25
2018-05-21T01:11:22.066Z,14.00
2018-05-21T01:13:54.150Z,14.50
2018-05-21T01:16:25.512Z,15.25
2018-05-21T01:18:59.233Z,15.50
2018-05-21T01:21:30.633Z,14.75
2018-05-21T01:24:01.596Z,14.25
2018-05-21T01:26:33.204Z,13.50
2018-05-21T01:29:03.882Z,13.25
2018-05-21T01:31:41.113Z,13.50
2018-05-21T01:34:11.664Z,13.00
2018-05-21T01:36:42.118Z,12.00
2018-05-21T01:39:13.779Z,11.00
2018-05-21T01:41:44.458Z,12.00
2018-05-21T01:44:14.922Z,14.25
2018-05-21T01:46:45.569Z,15.00
2018-05-21T01:49:15.906Z,12.75
2018-05-21T01:51:46.731Z,13.25
2018-05-21T01:54:17.162Z,11.50
2018-05-21T01:56:48.275Z,12.50
2018-05-21T01:59:18.859Z,12.75
2018-05-21T02:01:50.057Z,10.25
2018-05-21T02:04:20.782Z,10.25
2018-05-21T02:06:51.678Z,11.75
2018-05-21T02:09:22.150Z,10.50
2018-05-21T02:11:52.964Z,11.25
2018-05-21T02:14:26.216Z,13.25
2018-05-21T02:16:57.714Z,11.25
2018-05-21T02:19:28.325Z,11.75
2018-05-21T02:22:00.324Z,11.75
2018-05-21T02:24:30.871Z,12.25
2018-05-21T02:27:03.047Z,13.50
2018-05-21T02:29:34.921Z,12.25
2018-05-21T02:32:06.139Z,14.00
2018-05-21T02:34:38.005Z,15.00
2018-05-21T02:37:11.483Z,13.00
2018-05-21T02:39:43.128Z,13.00
2018-05-21T02:42:13.881Z,14.00
2018-05-21T02:44:44.706Z,14.50
2018-05-21T02:47:17.542Z,14.50
2018-05-21T02:49:48.235Z,14.50
2018-05-21T02:52:18.590Z,13.00
2018-05-21T02:54:49.424Z,16.25
2018-05-21T02:57:19.764Z,14.50
2018-05-21T02:59:50.466Z,13.25
2018-05-21T03:02:23.358Z,13.00
2018-05-21T03:04:55.162Z,13.75
2018-05-21T03:07:28.214Z,15.50
2018-05-21T03:10:05.595Z,15.75
2018-05-21T03:12:42.177Z,17.25
2018-05-21T03:15:18.821Z,17.00
2018-05-21T03:17:51.726Z,12.00
2018-05-21T03:20:25.425Z,15.75
2018-05-21T03:25:40.844Z,17.50
2018-05-21T03:28:11.485Z,18.25
2018-05-21T03:30:42.276Z,13.00
2018-05-21T03:33:12.682Z,13.25
2018-05-21T03:35:50.875Z,14.00
2018-05-21T03:38:21.606Z,14.00
2018-05-21T03:40:52.851Z,14.00
2018-05-21T03:43:24.003Z,16.50
2018-05-21T03:45:55.476Z,13.25
2018-05-21T03:48:26.477Z,12.75
2018-05-21T03:50:57.743Z,12.75
2018-05-21T03:53:45.575Z,12.25
2018-05-21T03:56:16.004Z,12.50
2018-05-21T04:01:04.613Z,11.25
2018-05-21T04:03:45.095Z,12.00
2018-05-21T04:06:18.485Z,12.50
2018-05-21T04:08:51.813Z,12.50
2018-05-21T04:11:23.143Z,10.25
2018-05-21T04:13:57.984Z,13.00
2018-05-21T04:16:32.738Z,11.25
2018-05-21T04:19:03.933Z,9.25
2018-05-21T04:21:35.449Z,11.75
2018-05-21T04:24:33.679Z,13.00
2018-05-21T04:27:19.479Z,12.50
2018-05-21T04:29:53.911Z,12.00
2018-05-21T04:32:25.389Z,11.00
2018-05-21T04:34:56.750Z,11.00
2018-05-21T04:37:27.414Z,11.00
2018-05-21T04:39:58.469Z,11.25
2018-05-21T04:42:29.039Z,10.00
2018-05-21T04:44:59.670Z,9.25
2018-05-21T04:47:31.448Z,9.00
2018-05-21T04:50:02.197Z,10.00
2018-05-21T04:52:33.093Z,9.75
2018-05-21T04:55:04.170Z,8.25
2018-05-21T04:57:55.262Z,10.50
2018-05-21T05:00:39.641Z,8.75
2018-05-21T05:03:22.328Z,7.75
2018-05-21T05:05:58.903Z,9.25
2018-05-21T05:08:33.110Z,12.00
2018-05-21T05:11:04.142Z,10.00
2018-05-21T05:13:34.945Z,11.25
2018-05-21T05:16:11.287Z,9.00
2018-05-21T05:18:42.039Z,11.25
2018-05-21T05:21:12.369Z,10.00
2018-05-21T05:23:43.443Z,10.75
2018-05-21T05:26:16.671Z,9.50
2018-05-21T05:28:49.821Z,11.00
2018-05-21T05:31:28.993Z,11.00
2018-05-21T05:33:59.497Z,12.00
2018-05-21T05:36:32.169Z,10.00
2018-05-21T05:39:09.608Z,10.25
2018-05-21T05:41:41.190Z,10.00
2018-05-21T05:44:13.541Z,10.25
2018-05-21T05:46:45.630Z,11.25
2018-05-21T05:49:18.699Z,10.75
2018-05-21T05:51:50.626Z,12.00
2018-05-21T05:54:27.656Z,11.00
2018-05-21T05:56:59.485Z,11.50
2018-05-21T05:59:29.772Z,12.25
2018-05-21T06:02:00.441Z,11.50
2018-05-21T06:04:36.645Z,13.00
2018-05-21T06:07:09.037Z,12.00
2018-05-21T06:09:39.945Z,12.50
2018-05-21T06:12:10.134Z,12.50
2018-05-21T06:14:52.869Z,12.50
2018-05-21T06:17:25.043Z,11.50
2018-05-21T06:19:57.068Z,12.75
2018-05-21T06:22:30.305Z,12.50
2018-05-21T06:25:01.901Z,12.00
2018-05-21T06:27:32.466Z,12.00
2018-05-21T06:32:59.524Z,10.75
2018-05-21T06:35:31.863Z,12.25
2018-05-21T06:38:12.513Z,11.25
2018-05-21T06:40:44.525Z,13.75
2018-05-21T06:43:17.336Z,10.75
2018-05-21T06:45:47.951Z,12.50
2018-05-21T06:48:24.074Z,14.00
2018-05-21T06:50:57.084Z,12.00
2018-05-21T06:53:27.747Z,14.00
2018-05-21T06:55:58.338Z,12.00
2018-05-21T06:58:29.060Z,11.00
2018-05-21T07:01:00.009Z,11.00
2018-05-21T07:03:31.010Z,9.75
2018-05-21T07:06:01.578Z,12.00
2018-05-21T07:08:31.979Z,11.25
2018-05-21T07:11:02.806Z,11.25
2018-05-21T07:13:39.411Z,10.75
2018-05-21T07:16:10.413Z,11.75
2018-05-21T07:18:41.275Z,11.50
2018-05-21T07:21:13.216Z,11.25
2018-05-21T07:23:44.956Z,12.00
2018-05-21T07:26:15.569Z,10.75
2018-05-21T07:28:47.827Z,11.25
2018-05-21T07:31:19.234Z,10.25
2018-05-21T07:33:51.541Z,14.25
2018-05-21T07:36:24.558Z,11.75
2018-05-21T07:38:55.537Z,10.75
2018-05-21T07:41:28.335Z,12.00
2018-05-21T07:43:58.836Z,10.75
2018-05-21T07:46:29.431Z,12.50
2018-05-21T07:49:04.963Z,12.25
2018-05-21T07:51:36.685Z,10.75
2018-05-21T07:54:12.719Z,13.00
2018-05-21T07:56:43.179Z,10.50
2018-05-21T07:59:22.389Z,11.75
2018-05-21T08:02:02.734Z,11.75
2018-05-21T08:04:34.154Z,10.75
2018-05-21T08:07:08.349Z,11.00
2018-05-21T08:09:40.696Z,10.50
2018-05-21T08:12:22.861Z,12.75
2018-05-21T08:14:55.492Z,13.75
2018-05-21T08:17:38.592Z,11.00
2018-05-21T08:20:10.671Z,12.00
2018-05-21T08:22:41.467Z,13.75
2018-05-21T08:25:17.036Z,14.75
2018-05-21T08:27:49.426Z,12.50
2018-05-21T08:30:22.106Z,12.75
2018-05-21T08:32:54.159Z,13.00
2018-05-21T08:35:35.989Z,14.75
2018-05-21T08:38:08.729Z,14.00
2018-05-21T08:43:45.947Z,15.75
2018-05-21T08:46:17.518Z,12.75
2018-05-21T08:48:48.414Z,13.50
2018-05-21T08:51:19.816Z,14.00
2018-05-21T08:53:51.451Z,15.00
2018-05-21T08:56:30.419Z,15.00
2018-05-21T08:59:01.751Z,13.00
2018-05-21T09:01:38.202Z,12.75
2018-05-21T09:04:10.160Z,15.00
2018-05-21T09:06:46.731Z,16.00
2018-05-21T09:09:19.892Z,15.00
2018-05-21T09:11:52.452Z,15.50
2018-05-21T09:14:33.241Z,14.00
2018-05-21T09:17:04.125Z,15.25
2018-05-21T09:19:34.946Z,14.00
2018-05-21T09:22:05.665Z,14.50
2018-05-21T09:24:36.702Z,13.25
2018-05-21T09:27:08.377Z,16.00
2018-05-21T09:29:39.929Z,15.25
2018-05-21T09:32:13.139Z,17.00
2018-05-21T09:34:45.981Z,16.00
2018-05-21T09:37:17.098Z,16.25
2018-05-21T09:39:48.448Z,15.25
2018-05-21T09:42:27.718Z,15.25
2018-05-21T09:45:04.937Z,15.75
2018-05-21T09:47:35.951Z,16.75
2018-05-21T09:50:07.090Z,15.25
2018-05-21T09:52:41.382Z,13.75
2018-05-21T09:55:15.131Z,16.00
2018-05-21T09:57:48.022Z,15.00
2018-05-21T10:00:36.758Z,16.00
2018-05-21T10:03:16.107Z,15.00
2018-05-21T10:05:49.844Z,15.50
2018-05-21T10:08:23.874Z,14.75
2018-05-21T10:10:55.682Z,12.25
2018-05-21T10:13:26.308Z,14.75
2018-05-21T10:15:57.849Z,14.75
2018-05-21T10:18:33.500Z,15.00
2018-05-21T10:21:04.435Z,15.25
2018-05-21T10:23:35.922Z,15.25
2018-05-21T10:26:06.532Z,14.00
2018-05-21T10:28:36.948Z,13.00
2018-05-21T10:31:08.627Z,13.50
2018-05-21T10:33:43.876Z,15.25
2018-05-21T10:36:16.365Z,15.25
2018-05-21T10:38:47.355Z,15.00
2018-05-21T10:41:21.377Z,13.50
2018-05-21T10:43:54.561Z,13.00
2018-05-21T10:46:28.259Z,13.75
2018-05-21T10:48:58.869Z,13.50
2018-05-21T10:51:30.819Z,12.00
2018-05-21T10:54:02.851Z,13.50
2018-05-21T10:56:35.038Z,13.75
2018-05-21T10:59:11.875Z,14.75
2018-05-21T11:01:45.819Z,13.00
2018-05-21T11:04:17.387Z,16.00
2018-05-21T11:06:48.497Z,13.00
2018-05-21T11:09:29.365Z,14.00
2018-05-21T11:12:04.257Z,13.00
2018-05-21T11:14:38.673Z,12.25
2018-05-21T11:17:09.931Z,11.25
2018-05-21T11:19:40.706Z,13.25
2018-05-21T11:22:11.218Z,15.00
2018-05-21T11:24:41.799Z,13.50
2018-05-21T11:27:12.794Z,14.00
2018-05-21T11:29:43.965Z,13.00
2018-05-21T11:32:15.040Z,13.50
2018-05-21T11:34:47.324Z,13.00
2018-05-21T11:37:19.532Z,13.25
2018-05-21T11:39:58.311Z,12.50
2018-05-21T11:42:29.900Z,13.25
2018-05-21T11:45:05.136Z,12.00
2018-05-21T11:47:37.192Z,13.00
2018-05-21T11:50:08.595Z,13.25
2018-05-21T11:52:54.778Z,11.75
2018-05-21T11:55:26.130Z,14.00
2018-05-21T11:57:56.672Z,11.00
2018-05-21T12:00:28.384Z,12.00
2018-05-21T12:02:59.435Z,12.50
2018-05-21T12:05:29.909Z,13.00
2018-05-21T12:08:01.260Z,12.75
2018-05-21T12:10:32.423Z,14.25
2018-05-21T12:13:02.930Z,15.00
2018-05-21T12:15:36.889Z,12.25
2018-05-21T12:18:08.978Z,11.00
2018-05-21T12:20:42.239Z,10.00
2018-05-21T12:23:18.606Z,13.75
2018-05-21T12:25:58.181Z,11.25
2018-05-21T12:28:31.460Z,12.75
2018-05-21T12:31:05.624Z,12.50
2018-05-21T12:33:36.998Z,13.00
2018-05-21T12:36:08.267Z,11.75
2018-05-21T12:38:49.207Z,10.75
2018-05-21T12:41:20.122Z,11.00
2018-05-21T12:43:50.434Z,10.00
2018-05-21T12:46:23.385Z,11.00
2018-05-21T12:48:54.838Z,12.00
2018-05-21T12:51:25.536Z,12.00
2018-05-21T12:53:56.502Z,12.50
2018-05-21T12:56:31.242Z,11.25
2018-05-21T12:59:01.876Z,11.00
2018-05-21T13:01:35.543Z,11.00
2018-05-21T13:04:06.311Z,9.00
2018-05-21T13:06:39.450Z,11.00
2018-05-21T13:09:22.325Z,10.50
2018-05-21T13:11:53.604Z,13.50
2018-05-21T13:14:43.964Z,11.75
2018-05-21T13:17:16.522Z,13.00
2018-05-21T13:19:59.714Z,10.00
2018-05-21T13:22:33.751Z,12.00
2018-05-21T13:25:04.657Z,11.00
2018-05-21T13:27:49.243Z,10.25
2018-05-21T13:30:19.999Z,11.00
2018-05-21T13:32:50.616Z,11.75
2018-05-21T13:35:21.865Z,11.00
2018-05-21T13:37:52.713Z,11.25
2018-05-21T13:40:27.214Z,12.75
2018-05-21T13:42:58.129Z,12.00
2018-05-21T13:45:29.891Z,12.75
2018-05-21T13:48:02.588Z,12.50
2018-05-21T13:50:33.558Z,13.75
2018-05-21T13:53:04.069Z,15.00
2018-05-21T13:55:34.485Z,11.00
2018-05-21T13:58:05.496Z,11.00
2018-05-21T14:00:38.484Z,12.50
2018-05-21T14:03:10.377Z,10.00
2018-05-21T14:05:41.647Z,12.00
2018-05-21T14:08:13.043Z,10.25
2018-05-21T14:10:43.779Z,12.25
2018-05-21T14:13:14.196Z,15.00
2018-05-21T14:15:46.191Z,12.00
2018-05-21T14:18:18.264Z,11.00
2018-05-21T14:20:51.133Z,11.25
2018-05-21T14:23:22.132Z,12.00
2018-05-21T14:25:54.385Z,11.75
2018-05-21T14:28:29.010Z,13.00
2018-05-21T14:31:07.320Z,12.75
2018-05-21T14:34:01.774Z,10.50
2018-05-21T14:36:33.893Z,11.25
2018-05-21T14:39:05.457Z,14.00
2018-05-21T14:41:36.675Z,13.00
2018-05-21T14:44:11.061Z,13.25
2018-05-21T14:46:44.967Z,12.00
2018-05-21T14:49:18.984Z,12.50
2018-05-21T14:51:55.343Z,11.00
2018-05-21T14:54:26.069Z,12.00
2018-05-21T14:56:57.384Z,13.50
2018-05-21T14:59:32.685Z,12.25
2018-05-21T15:02:04.623Z,12.25
2018-05-21T15:04:35.243Z,14.00
2018-05-21T15:07:11.248Z,12.75
2018-05-21T15:09:44.126Z,15.50
2018-05-21T15:12:15.722Z,14.25
2018-05-21T15:14:47.283Z,16.00
2018-05-21T15:17:20.664Z,13.00
2018-05-21T15:19:51.419Z,12.25
2018-05-21T15:22:22.642Z,13.00
2018-05-21T15:24:53.753Z,13.00
2018-05-21T15:27:26.845Z,14.00
2018-05-21T15:29:59.028Z,13.25
2018-05-21T15:32:30.847Z,13.25
2018-05-21T15:35:02.591Z,15.75
2018-05-21T15:37:37.200Z,13.00
2018-05-21T15:40:10.463Z,13.75
2018-05-21T15:42:43.705Z,17.75
2018-05-21T15:45:24.028Z,16.00
2018-05-21T15:47:55.781Z,15.00
2018-05-21T15:50:26.812Z,14.00
2018-05-21T15:52:58.249Z,13.50
2018-05-21T15:55:29.658Z,14.00
2018-05-21T15:58:02.509Z,12.75
2018-05-21T16:00:35.736Z,15.00
2018-05-21T16:03:10.554Z,13.00
2018-05-21T16:05:42.807Z,14.75
2018-05-21T16:08:15.435Z,15.00
2018-05-21T16:10:57.545Z,13.00
2018-05-21T16:13:28.623Z,15.25
2018-05-21T16:15:59.468Z,15.25
2018-05-21T16:18:32.566Z,14.25
2018-05-21T16:21:04.228Z,15.25
2018-05-21T16:23:53.796Z,15.25
2018-05-21T16:26:29.704Z,14.25
2018-05-21T16:29:05.325Z,12.75
2018-05-21T16:31:50.044Z,13.50
2018-05-21T16:34:26.637Z,14.00
2018-05-21T16:37:00.367Z,12.25
2018-05-21T16:39:32.207Z,14.25
2018-05-21T16:42:07.373Z,13.50
2018-05-21T16:44:52.008Z,16.75
2018-05-21T16:47:22.889Z,15.25
2018-05-21T16:49:55.501Z,13.00
2018-05-21T16:52:34.478Z,16.75
2018-05-21T16:55:09.639Z,15.25
2018-05-21T16:57:40.481Z,15.00
2018-05-21T17:00:16.664Z,14.75
2018-05-21T17:02:48.942Z,13.75
2018-05-21T17:05:21.714Z,12.00
2018-05-21T17:07:54.166Z,15.75
2018-05-21T17:10:30.632Z,15.00
2018-05-21T17:13:02.026Z,15.25
2018-05-21T17:15:35.471Z,12.25
2018-05-21T17:18:06.416Z,14.00
2018-05-21T17:20:39.752Z,15.25
2018-05-21T17:23:13.575Z,12.50
2018-05-21T17:25:46.764Z,16.00
2018-05-21T17:28:19.924Z,14.00
2018-05-21T17:30:50.906Z,14.50
2018-05-21T17:36:44.724Z,15.00
2018-05-21T17:39:17.362Z,17.00
2018-05-21T17:41:49.826Z,14.00
2018-05-21T17:44:21.096Z,13.00
2018-05-21T17:47:12.761Z,14.00
2018-05-21T17:49:52.643Z,15.00
2018-05-21T17:52:32.394Z,13.75
2018-05-21T17:55:21.213Z,14.25
2018-05-21T17:58:03.712Z,13.75
2018-05-21T18:00:36.740Z,13.00
2018-05-21T18:03:09.205Z,15.00
2018-05-21T18:05:40.182Z,14.00
2018-05-21T18:08:16.103Z,13.75
2018-05-21T18:10:51.461Z,14.00
2018-05-21T18:13:25.144Z,13.25
2018-05-21T18:15:57.026Z,14.50
2018-05-21T18:18:34.634Z,13.00
2018-05-21T18:21:07.129Z,14.00
2018-05-21T18:23:49.262Z,15.00
2018-05-21T18:26:20.778Z,16.50
2018-05-21T18:28:52.640Z,13.75
2018-05-21T18:31:32.870Z,13.50
2018-05-21T18:34:04.605Z,13.00
2018-05-21T18:36:40.465Z,15.00
2018-05-21T18:39:14.113Z,16.25
2018-05-21T18:41:49.912Z,15.75
2018-05-21T18:44:25.595Z,16.00
2018-05-21T18:47:05.175Z,13.25
2018-05-21T18:49:41.985Z,16.50
2018-05-21T18:52:15.365Z,13.00
2018-05-21T18:54:56.217Z,14.00
2018-05-21T18:57:31.436Z,14.50
2018-05-21T19:02:48.524Z,16.00
2018-05-21T19:05:20.104Z,15.25
2018-05-21T19:07:52.071Z,16.00
2018-05-21T19:10:24.505Z,17.75
2018-05-21T19:12:55.636Z,15.50
2018-05-21T19:15:45.344Z,17.50
2018-05-21T19:18:22.458Z,17.00
2018-05-21T19:20:55.610Z,17.75
2018-05-21T19:23:31.612Z,17.00
2018-05-21T19:26:03.314Z,17.50
2018-05-21T19:28:33.708Z,16.00
2018-05-21T19:33:56.989Z,16.50
2018-05-21T19:36:27.321Z,17.25
2018-05-21T19:39:00.721Z,17.00
2018-05-21T19:41:33.130Z,15.75
2018-05-21T19:44:04.711Z,19.75
2018-05-21T19:46:37.596Z,17.50
2018-05-21T19:49:13.987Z,19.00
2018-05-21T19:52:04.146Z,20.50
2018-05-21T19:54:41.362Z,19.00
2018-05-21T19:57:18.248Z,19.25
2018-05-21T19:59:54.760Z,19.50
2018-05-21T20:02:33.140Z,18.50
2018-05-21T20:05:04.569Z,18.00
2018-05-21T20:07:44.008Z,16.25
2018-05-21T20:10:22.192Z,16.75
2018-05-21T20:13:10.243Z,19.00
2018-05-21T20:15:45.506Z,16.50
2018-05-21T20:18:20.568Z,18.75
2018-05-21T20:21:16.221Z,16.00
2018-05-21T20:23:54.473Z,17.00
2018-05-21T20:26:32.095Z,17.00
2018-05-21T20:29:09.133Z,16.00
2018-05-21T20:31:40.465Z,16.00
2018-05-21T20:34:11.061Z,16.00
2018-05-21T20:36:41.859Z,14.25
2018-05-21T20:39:12.305Z,13.25
2018-05-21T20:41:43.000Z,16.00
2018-05-21T20:44:13.701Z,16.50
2018-05-21T20:46:54.904Z,15.50
2018-05-21T20:49:26.341Z,15.50
2018-05-21T20:51:57.973Z,16.75
2018-05-21T20:54:28.243Z,17.00
2018-05-21T20:56:58.944Z,16.00
2018-05-21T20:59:31.324Z,17.50
2018-05-21T21:02:04.385Z,15.50
2018-05-21T21:04:35.363Z,15.00
2018-05-21T21:07:09.463Z,18.00
2018-05-21T21:09:40.874Z,19.50
2018-05-21T21:12:11.323Z,17.50
2018-05-21T21:14:42.133Z,17.75
2018-05-21T21:17:12.671Z,16.75
2018-05-21T21:19:43.714Z,18.50
2018-05-21T21:22:15.632Z,16.25
2018-05-21T21:24:47.259Z,15.00
2018-05-21T21:27:18.074Z,13.75
2018-05-21T21:29:50.964Z,15.25
2018-05-21T21:32:22.012Z,17.00
2018-05-21T21:34:52.825Z,18.25
2018-05-21T21:37:23.309Z,15.75
2018-05-21T21:39:59.126Z,16.50
2018-05-21T21:42:29.837Z,16.25
2018-05-21T21:45:00.213Z,17.25
2018-05-21T21:47:33.050Z,16.00
2018-05-21T21:50:06.613Z,17.75
2018-05-21T21:52:37.367Z,18.25
2018-05-21T21:55:08.008Z,16.50
2018-05-21T21:57:43.133Z,19.75
2018-05-21T22:00:17.861Z,20.00
2018-05-21T22:02:48.422Z,20.25
2018-05-21T22:05:19.271Z,17.50
2018-05-21T22:07:49.954Z,18.25
2018-05-21T22:10:20.434Z,18.50
2018-05-21T22:12:51.603Z,17.25
2018-05-21T22:15:22.965Z,19.75
2018-05-21T22:17:54.243Z,18.50
2018-05-21T22:20:25.040Z,20.75
2018-05-21T22:22:58.040Z,16.50
2018-05-21T22:25:29.922Z,17.25
2018-05-21T22:28:03.565Z,19.75
2018-05-21T22:30:36.000Z,19.75
2018-05-21T22:33:07.707Z,19.00
2018-05-21T22:35:39.544Z,18.25
2018-05-21T22:38:10.273Z,20.50
2018-05-21T22:40:41.869Z,19.25
2018-05-21T22:43:12.757Z,21.25
2018-05-21T22:45:43.918Z,21.50
2018-05-21T22:48:14.874Z,23.25
2018-05-21T22:50:45.257Z,22.75
2018-05-21T22:53:15.981Z,20.00
2018-05-21T22:55:47.047Z,21.25
2018-05-21T22:58:17.633Z,19.75
2018-05-21T23:00:48.712Z,21.75
2018-05-21T23:03:19.480Z,21.50
2018-05-21T23:05:51.000Z,21.50
2018-05-21T23:08:21.726Z,19.50
2018-05-21T23:10:52.932Z,22.00
2018-05-21T23:13:23.632Z,23.75
2018-05-21T23:15:54.680Z,25.00
2018-05-21T23:18:24.993Z,22.50
2018-05-21T23:20:55.574Z,25.25
2018-05-21T23:23:26.409Z,27.75
2018-05-21T23:26:00.643Z,22.75
2018-05-21T23:28:34.065Z,26.00
2018-05-21T23:31:06.293Z,24.00
2018-05-21T23:33:38.043Z,25.50
2018-05-21T23:36:10.408Z,29.50
2018-05-21T23:38:40.986Z,27.00
2018-05-21T23:41:12.256Z,24.00
2018-05-21T23:43:43.077Z,26.25
2018-05-21T23:46:14.762Z,24.25
2018-05-21T23:48:45.142Z,24.75
2018-05-21T23:51:16.752Z,25.00
2018-05-21T23:53:47.216Z,22.25
2018-05-21T23:56:18.846Z,27.00
2018-05-21T23:58:49.662Z,25.75
